createdAt,value
2019-06-08T00:00:13.040Z,100045.80
2019-06-08T00:02:43.397Z,100039.52
2019-06-08T00:05:14.737Z,100035.41
2019-06-08T00:07:44.991Z,100059.81
2019-06-08T00:10:15.228Z,100049.02
2019-06-08T00:12:45.597Z,100050.26
2019-06-08T00:15:16.156Z,100056.31
2019-06-08T00:17:46.388Z,100061.14
2019-06-08T00:20:17.725Z,100074.28
2019-06-08T00:22:50.949Z,100079.83
2019-06-08T00:25:22.449Z,100077.84
2019-06-08T00:27:52.762Z,100066.66
2019-06-08T00:30:22.984Z,100074.05
2019-06-08T00:32:53.191Z,100079.81
2019-06-08T00:35:24.831Z,100074.08
2019-06-08T00:37:55.212Z,100082.96
2019-06-08T00:40:25.452Z,100107.79
2019-06-08T00:42:55.653Z,100096.78
2019-06-08T00:45:25.877Z,100093.20
2019-06-08T00:47:56.084Z,100104.55
2019-06-08T00:50:26.311Z,100121.73
2019-06-08T00:52:56.531Z,100101.41
2019-06-08T00:55:26.824Z,100093.00
2019-06-08T00:57:57.011Z,100108.70
2019-06-08T01:00:27.258Z,100107.11
2019-06-08T01:02:57.469Z,100109.09
2019-06-08T01:05:27.699Z,100133.16
2019-06-08T01:07:57.886Z,100132.23
2019-06-08T01:10:29.649Z,100128.51
2019-06-08T01:12:59.957Z,100136.58
2019-06-08T01:15:34.079Z,100137.95
2019-06-08T01:18:04.244Z,100134.61
2019-06-08T01:20:34.046Z,100130.38
2019-06-08T01:23:04.235Z,100142.00
2019-06-08T01:25:34.864Z,100157.47
2019-06-08T01:28:05.083Z,100154.41
2019-06-08T01:30:35.286Z,100157.28
2019-06-08T01:33:05.523Z,100170.45
2019-06-08T01:35:35.798Z,100177.00
2019-06-08T01:38:06.194Z,100179.65
2019-06-08T01:40:36.459Z,100164.19
2019-06-08T01:43:06.680Z,100160.45
2019-06-08T01:45:36.880Z,100169.01
2019-06-08T01:48:19.379Z,100171.28
2019-06-08T01:50:39.251Z,100193.36
2019-06-08T01:53:09.479Z,100195.87
2019-06-08T01:55:39.696Z,100209.80
2019-06-08T01:58:09.907Z,100208.23
2019-06-08T02:00:41.663Z,100209.40
2019-06-08T02:03:12.231Z,100205.16
2019-06-08T02:05:42.501Z,100213.72
2019-06-08T02:08:12.747Z,100201.77
2019-06-08T02:10:42.962Z,100188.61
2019-06-08T02:13:13.291Z,100187.55
2019-06-08T02:15:43.482Z,100197.23
2019-06-08T02:18:13.715Z,100212.12
2019-06-08T02:20:44.076Z,100213.39
2019-06-08T02:23:14.323Z,100220.44
2019-06-08T02:25:44.590Z,100230.83
2019-06-08T02:28:14.852Z,100224.25
2019-06-08T02:30:45.189Z,100226.95
2019-06-08T02:33:15.448Z,100215.11
2019-06-08T02:35:45.704Z,100224.82
2019-06-08T02:38:15.931Z,100231.67
2019-06-08T02:40:46.218Z,100225.39
2019-06-08T02:43:16.695Z,100219.45
2019-06-08T02:45:46.967Z,100223.20
2019-06-08T02:48:17.215Z,100217.05
2019-06-08T02:50:52.938Z,100227.70
2019-06-08T02:53:25.739Z,100243.63
2019-06-08T02:55:56.012Z,100255.75
2019-06-08T02:58:26.233Z,100242.67
2019-06-08T03:00:56.678Z,100251.69
2019-06-08T03:03:27.209Z,100255.39
2019-06-08T03:05:57.406Z,100252.36
2019-06-08T03:08:27.714Z,100262.51
2019-06-08T03:10:58.043Z,100272.39
2019-06-08T03:13:28.224Z,100265.55
2019-06-08T03:15:58.451Z,100268.13
2019-06-08T03:18:28.653Z,100261.52
2019-06-08T03:20:58.868Z,100266.46
2019-06-08T03:23:29.063Z,100272.47
2019-06-08T03:26:00.244Z,100277.72
2019-06-08T03:28:30.449Z,100279.88
2019-06-08T03:31:00.666Z,100281.59
2019-06-08T03:33:30.848Z,100287.76
2019-06-08T03:36:01.073Z,100283.29
2019-06-08T03:38:31.271Z,100279.45
2019-06-08T03:41:01.492Z,100289.94
2019-06-08T03:43:31.692Z,100297.94
2019-06-08T03:46:01.919Z,100305.25
2019-06-08T03:48:32.126Z,100313.27
2019-06-08T03:51:02.352Z,100313.45
2019-06-08T03:53:32.533Z,100314.20
2019-06-08T03:56:02.758Z,100315.23
2019-06-08T03:58:34.129Z,100316.50
2019-06-08T04:01:04.752Z,100315.30
2019-06-08T04:03:35.005Z,100327.08
2019-06-08T04:06:05.206Z,100327.84
2019-06-08T04:08:35.412Z,100325.88
2019-06-08T04:11:06.334Z,100329.05
2019-06-08T04:13:37.701Z,100336.63
2019-06-08T04:16:08.026Z,100330.55
2019-06-08T04:18:40.162Z,100337.36
2019-06-08T04:21:10.142Z,100335.82
2019-06-08T04:23:40.753Z,100341.97
2019-06-08T04:26:12.439Z,100342.44
2019-06-08T04:28:42.647Z,100338.76
2019-06-08T04:31:12.877Z,100334.92
2019-06-08T04:33:44.375Z,100341.70
2019-06-08T04:36:14.655Z,100345.43
2019-06-08T04:38:45.778Z,100345.37
2019-06-08T04:41:16.789Z,100349.37
2019-06-08T04:43:49.155Z,100350.70
2019-06-08T04:46:18.930Z,100358.15
2019-06-08T04:48:50.066Z,100361.92
2019-06-08T04:51:20.430Z,100371.20
2019-06-08T04:53:50.661Z,100375.31
2019-06-08T04:56:21.846Z,100385.38
2019-06-08T04:58:52.048Z,100391.30
2019-06-08T05:01:22.249Z,100390.39
2019-06-08T05:03:52.492Z,100387.48
2019-06-08T05:06:22.690Z,100396.57
2019-06-08T05:08:52.902Z,100402.38
2019-06-08T05:11:23.128Z,100418.11
2019-06-08T05:13:54.302Z,100424.11
2019-06-08T05:16:24.491Z,100422.81
2019-06-08T05:18:54.708Z,100428.28
2019-06-08T05:21:24.916Z,100430.45
2019-06-08T05:23:58.841Z,100434.53
2019-06-08T05:26:27.036Z,100436.14
2019-06-08T05:28:57.246Z,100445.12
2019-06-08T05:31:27.443Z,100450.00
2019-06-08T05:33:57.671Z,100452.40
2019-06-08T05:36:27.880Z,100454.74
2019-06-08T05:38:58.099Z,100463.70
2019-06-08T05:41:28.288Z,100466.60
2019-06-08T05:43:58.509Z,100467.91
2019-06-08T05:46:28.784Z,100473.42
2019-06-08T05:48:59.003Z,100476.83
2019-06-08T05:51:29.205Z,100474.19
2019-06-08T05:54:02.745Z,100489.02
2019-06-08T05:56:34.240Z,100479.37
2019-06-08T05:59:04.471Z,100489.49
2019-06-08T06:01:36.452Z,100492.96
2019-06-08T06:04:06.665Z,100488.62
2019-06-08T06:06:36.866Z,100493.59
2019-06-08T06:09:08.620Z,100491.76
2019-06-08T06:11:38.827Z,100496.59
2019-06-08T06:14:09.121Z,100496.54
2019-06-08T06:16:39.326Z,100494.47
2019-06-08T06:19:09.551Z,100501.45
2019-06-08T06:21:40.904Z,100504.73
2019-06-08T06:24:11.327Z,100501.19
2019-06-08T06:26:41.534Z,100508.41
2019-06-08T06:29:11.770Z,100504.69
2019-06-08T06:31:41.977Z,100510.33
2019-06-08T06:34:12.185Z,100521.96
2019-06-08T06:36:43.782Z,100523.97
2019-06-08T06:39:15.059Z,100534.63
2019-06-08T06:41:45.964Z,100525.64
2019-06-08T06:44:17.151Z,100528.98
2019-06-08T06:46:48.003Z,100536.77
2019-06-08T06:49:18.316Z,100537.17
2019-06-08T06:51:48.556Z,100551.01
2019-06-08T06:54:18.777Z,100552.67
2019-06-08T06:56:49.426Z,100550.31
2019-06-08T06:59:19.677Z,100546.86
2019-06-08T07:01:54.346Z,100557.86
2019-06-08T07:04:21.814Z,100562.77
2019-06-08T07:06:52.290Z,100572.16
2019-06-08T07:09:22.514Z,100571.39
2019-06-08T07:11:53.082Z,100573.66
2019-06-08T07:14:23.320Z,100575.86
2019-06-08T07:16:54.069Z,100580.34
2019-06-08T07:19:24.383Z,100584.34
2019-06-08T07:21:54.855Z,100576.51
2019-06-08T07:24:25.079Z,100583.42
2019-06-08T07:26:55.300Z,100580.84
2019-06-08T07:29:25.518Z,100580.69
2019-06-08T07:31:55.751Z,100586.27
2019-06-08T07:34:25.951Z,100579.50
2019-06-08T07:36:56.182Z,100586.62
2019-06-08T07:39:27.348Z,100587.02
2019-06-08T07:41:57.586Z,100589.25
2019-06-08T07:44:27.792Z,100591.06
2019-06-08T07:46:58.020Z,100591.04
2019-06-08T07:49:28.220Z,100591.37
2019-06-08T07:52:08.274Z,100591.94
2019-06-08T07:54:30.512Z,100610.97
2019-06-08T07:57:00.740Z,100602.45
2019-06-08T07:59:30.960Z,100611.47
2019-06-08T08:02:01.243Z,100616.09
2019-06-08T08:04:31.441Z,100612.63
2019-06-08T08:07:01.664Z,100617.68
2019-06-08T08:09:32.278Z,100612.62
2019-06-08T08:12:02.508Z,100614.95
2019-06-08T08:14:32.715Z,100616.16
2019-06-08T08:17:02.938Z,100617.95
2019-06-08T08:19:33.178Z,100620.18
2019-06-08T08:22:21.453Z,100622.98
2019-06-08T08:24:35.308Z,100615.59
2019-06-08T08:27:08.193Z,100618.91
2019-06-08T08:29:38.255Z,100617.00
2019-06-08T08:32:09.971Z,100615.38
2019-06-08T08:34:40.291Z,100617.31
2019-06-08T08:37:10.510Z,100619.61
2019-06-08T08:39:40.723Z,100628.13
2019-06-08T08:42:11.106Z,100630.86
2019-06-08T08:44:41.396Z,100640.38
2019-06-08T08:47:11.613Z,100641.71
2019-06-08T08:49:41.826Z,100634.64
2019-06-08T08:52:12.039Z,100638.30
2019-06-08T08:54:42.906Z,100627.95
2019-06-08T08:57:13.151Z,100625.30
2019-06-08T08:59:43.382Z,100634.01
2019-06-08T09:02:13.583Z,100630.92
2019-06-08T09:04:43.810Z,100633.08
2019-06-08T09:07:14.069Z,100629.78
2019-06-08T09:09:44.289Z,100632.05
2019-06-08T09:12:14.495Z,100632.38
2019-06-08T09:14:44.721Z,100635.39
2019-06-08T09:17:14.989Z,100635.86
2019-06-08T09:19:47.829Z,100634.86
2019-06-08T09:22:18.781Z,100640.97
2019-06-08T09:24:49.133Z,100644.45
2019-06-08T09:27:19.328Z,100645.97
2019-06-08T09:29:49.567Z,100655.58
2019-06-08T09:32:19.769Z,100651.36
2019-06-08T09:34:52.918Z,100653.61
2019-06-08T09:37:22.906Z,100652.28
2019-06-08T09:39:53.950Z,100650.39
2019-06-08T09:42:25.204Z,100643.87
2019-06-08T09:44:57.986Z,100647.33
2019-06-08T09:47:28.036Z,100642.91
2019-06-08T09:50:01.734Z,100641.93
2019-06-08T09:52:30.384Z,100636.53
2019-06-08T09:55:03.714Z,100637.34
2019-06-08T09:57:32.629Z,100643.27
2019-06-08T10:00:14.453Z,100633.57
2019-06-08T10:02:36.286Z,100639.62
2019-06-08T10:05:06.528Z,100637.56
2019-06-08T10:07:38.834Z,100648.24
2019-06-08T10:10:10.043Z,100642.44
2019-06-08T10:12:41.093Z,100642.55
2019-06-08T10:15:11.677Z,100645.11
2019-06-08T10:17:41.932Z,100650.94
2019-06-08T10:20:12.212Z,100653.25
2019-06-08T10:22:42.413Z,100663.73
2019-06-08T10:25:12.706Z,100652.98
2019-06-08T10:27:42.988Z,100659.50
2019-06-08T10:30:13.223Z,100663.80
2019-06-08T10:32:43.492Z,100659.97
2019-06-08T10:35:13.722Z,100663.80
2019-06-08T10:37:47.875Z,100659.92
2019-06-08T10:40:19.419Z,100668.58
2019-06-08T10:42:49.605Z,100667.47
2019-06-08T10:45:19.850Z,100673.13
2019-06-08T10:47:50.107Z,100663.02
2019-06-08T10:50:20.338Z,100683.38
2019-06-08T10:52:50.545Z,100678.98
2019-06-08T10:55:20.771Z,100674.20
2019-06-08T10:57:51.094Z,100676.41
2019-06-08T11:00:24.000Z,100675.27
2019-06-08T11:02:54.750Z,100675.66
2019-06-08T11:05:27.925Z,100671.13
2019-06-08T11:07:59.000Z,100677.52
2019-06-08T11:10:28.809Z,100673.89
2019-06-08T11:13:05.193Z,100676.88
2019-06-08T11:15:31.908Z,100668.14
2019-06-08T11:18:06.661Z,100678.56
2019-06-08T11:20:34.177Z,100683.36
2019-06-08T11:23:05.640Z,100678.64
2019-06-08T11:25:37.671Z,100680.83
2019-06-08T11:28:13.781Z,100685.66
2019-06-08T11:30:40.819Z,100676.75
2019-06-08T11:33:12.523Z,100683.78
2019-06-08T11:35:43.349Z,100678.48
2019-06-08T11:38:14.184Z,100681.55
2019-06-08T11:40:44.851Z,100681.16
2019-06-08T11:43:18.193Z,100678.77
2019-06-08T11:45:48.714Z,100682.27
2019-06-08T11:48:19.614Z,100679.30
2019-06-08T11:50:50.247Z,100677.53
2019-06-08T11:53:20.594Z,100679.88
2019-06-08T11:55:51.283Z,100684.78
2019-06-08T11:58:22.968Z,100678.00
2019-06-08T12:01:05.490Z,100683.51
2019-06-08T12:03:38.703Z,100682.95
2019-06-08T12:06:09.474Z,100683.09
2019-06-08T12:08:40.336Z,100686.73
2019-06-08T12:11:16.428Z,100684.59
2019-06-08T12:13:42.462Z,100686.59
2019-06-08T12:16:15.800Z,100675.75
2019-06-08T12:18:44.593Z,100678.58
2019-06-08T12:21:14.820Z,100677.52
2019-06-08T12:23:45.136Z,100692.11
2019-06-08T12:26:15.354Z,100689.88
2019-06-08T12:28:45.584Z,100686.38
2019-06-08T12:31:21.943Z,100687.63
2019-06-08T12:33:48.924Z,100690.27
2019-06-08T12:36:20.990Z,100698.80
2019-06-08T12:38:51.391Z,100687.92
2019-06-08T12:41:21.613Z,100687.96
2019-06-08T12:43:51.850Z,100684.23
2019-06-08T12:46:22.059Z,100687.42
2019-06-08T12:48:52.309Z,100683.49
2019-06-08T12:51:22.500Z,100681.94
2019-06-08T12:53:52.788Z,100684.61
2019-06-08T12:56:24.195Z,100681.47
2019-06-08T12:58:57.755Z,100689.73
2019-06-08T13:01:28.197Z,100685.09
2019-06-08T13:03:58.551Z,100692.68
2019-06-08T13:06:28.853Z,100690.41
2019-06-08T13:08:59.079Z,100689.05
2019-06-08T13:11:29.289Z,100692.27
2019-06-08T13:13:59.522Z,100691.53
2019-06-08T13:16:29.744Z,100693.44
2019-06-08T13:18:59.955Z,100696.11
2019-06-08T13:21:34.941Z,100694.66
2019-06-08T13:24:02.219Z,100693.58
2019-06-08T13:26:32.466Z,100693.27
2019-06-08T13:29:02.663Z,100692.89
2019-06-08T13:31:32.892Z,100694.87
2019-06-08T13:34:03.092Z,100692.36
2019-06-08T13:36:33.389Z,100689.62
2019-06-08T13:39:03.663Z,100691.98
2019-06-08T13:41:33.963Z,100696.01
2019-06-08T13:44:04.169Z,100685.25
2019-06-08T13:46:34.393Z,100685.47
2019-06-08T13:49:04.601Z,100685.38
2019-06-08T13:51:34.844Z,100684.36
2019-06-08T13:54:05.075Z,100685.56
2019-06-08T13:56:35.298Z,100688.25
2019-06-08T13:59:10.593Z,100690.98
2019-06-08T14:01:47.783Z,100681.52
2019-06-08T14:04:19.454Z,100689.34
2019-06-08T14:06:50.574Z,100690.98
2019-06-08T14:09:22.072Z,100690.33
2019-06-08T14:11:52.886Z,100688.11
2019-06-08T14:14:26.068Z,100677.67
2019-06-08T14:16:58.661Z,100682.62
2019-06-08T14:19:31.441Z,100685.06
2019-06-08T14:22:01.211Z,100678.58
2019-06-08T14:24:34.438Z,100684.20
2019-06-08T14:27:03.390Z,100681.73
2019-06-08T14:29:33.821Z,100676.27
2019-06-08T14:32:04.127Z,100673.50
2019-06-08T14:34:34.407Z,100675.47
2019-06-08T14:37:04.657Z,100678.59
2019-06-08T14:39:34.919Z,100674.16
2019-06-08T14:42:05.224Z,100673.20
2019-06-08T14:44:37.916Z,100677.42
2019-06-08T14:47:16.048Z,100695.45
2019-06-08T14:49:48.655Z,100689.97
2019-06-08T14:52:19.386Z,100687.69
2019-06-08T14:54:51.246Z,100690.03
2019-06-08T14:57:21.639Z,100680.03
2019-06-08T14:59:51.840Z,100681.48
2019-06-08T15:02:28.600Z,100676.60
2019-06-08T15:05:00.060Z,100677.76
2019-06-08T15:07:32.358Z,100680.23
2019-06-08T15:10:02.396Z,100681.41
2019-06-08T15:12:32.613Z,100675.44
2019-06-08T15:15:02.813Z,100673.73
2019-06-08T15:17:33.719Z,100683.89
2019-06-08T15:20:08.828Z,100682.16
2019-06-08T15:22:39.175Z,100669.85
2019-06-08T15:25:11.172Z,100668.28
2019-06-08T15:27:41.409Z,100661.41
2019-06-08T15:30:11.585Z,100662.42
2019-06-08T15:32:41.822Z,100658.95
2019-06-08T15:35:12.939Z,100663.45
2019-06-08T15:37:43.183Z,100655.87
2019-06-08T15:40:13.388Z,100652.92
2019-06-08T15:42:43.619Z,100647.42
2019-06-08T15:45:13.828Z,100653.27
2019-06-08T15:47:44.050Z,100649.84
2019-06-08T15:50:14.301Z,100648.36
2019-06-08T15:52:44.575Z,100643.69
2019-06-08T15:55:14.868Z,100642.41
2019-06-08T15:57:45.078Z,100644.25
2019-06-08T16:00:15.446Z,100638.33
2019-06-08T16:02:45.715Z,100637.20
2019-06-08T16:05:16.133Z,100636.98
2019-06-08T16:07:46.517Z,100644.45
2019-06-08T16:10:16.739Z,100641.73
2019-06-08T16:12:46.946Z,100646.55
2019-06-08T16:15:17.179Z,100642.91
2019-06-08T16:17:48.358Z,100635.34
2019-06-08T16:20:18.594Z,100644.30
2019-06-08T16:22:48.808Z,100639.62
2019-06-08T16:25:19.039Z,100642.20
2019-06-08T16:27:49.317Z,100644.87
2019-06-08T16:30:19.539Z,100641.36
2019-06-08T16:32:49.747Z,100640.72
2019-06-08T16:35:19.983Z,100644.97
2019-06-08T16:37:50.180Z,100639.65
2019-06-08T16:40:20.467Z,100643.44
2019-06-08T16:42:50.657Z,100639.94
2019-06-08T16:45:20.895Z,100643.44
2019-06-08T16:47:52.195Z,100641.85
2019-06-08T16:50:24.714Z,100649.82
2019-06-08T16:52:54.353Z,100644.52
2019-06-08T16:55:24.567Z,100649.02
2019-06-08T16:57:55.759Z,100649.49
2019-06-08T17:00:37.221Z,100650.80
2019-06-08T17:02:57.941Z,100642.92
2019-06-08T17:05:28.921Z,100646.14
2019-06-08T17:07:59.261Z,100646.83
2019-06-08T17:10:30.471Z,100647.20
2019-06-08T17:13:00.779Z,100649.53
2019-06-08T17:15:32.059Z,100644.13
2019-06-08T17:18:02.335Z,100646.69
2019-06-08T17:20:32.634Z,100653.97
2019-06-08T17:23:02.859Z,100652.04
2019-06-08T17:25:34.381Z,100656.94
2019-06-08T17:28:04.681Z,100655.34
2019-06-08T17:30:35.857Z,100654.13
2019-06-08T17:33:06.884Z,100656.30
2019-06-08T17:35:37.617Z,100653.64
2019-06-08T17:38:07.990Z,100659.44
2019-06-08T17:40:38.248Z,100663.14
2019-06-08T17:43:08.640Z,100661.84
2019-06-08T17:45:40.695Z,100658.80
2019-06-08T17:48:11.143Z,100658.73
2019-06-08T17:50:41.427Z,100653.50
2019-06-08T17:53:11.909Z,100657.66
2019-06-08T17:55:43.508Z,100656.03
2019-06-08T17:58:15.195Z,100660.18
2019-06-08T18:00:46.641Z,100661.84
2019-06-08T18:03:17.328Z,100657.18
2019-06-08T18:05:48.795Z,100655.83
2019-06-08T18:08:19.126Z,100659.81
2019-06-08T18:10:49.343Z,100653.95
2019-06-08T18:13:19.568Z,100663.20
2019-06-08T18:15:49.786Z,100662.42
2019-06-08T18:18:19.980Z,100663.80
2019-06-08T18:20:52.218Z,100662.16
2019-06-08T18:23:22.115Z,100669.17
2019-06-08T18:25:52.373Z,100671.68
2019-06-08T18:28:22.579Z,100670.29
2019-06-08T18:30:52.799Z,100669.42
2019-06-08T18:33:22.996Z,100671.06
2019-06-08T18:35:53.224Z,100677.80
2019-06-08T18:38:23.437Z,100681.83
2019-06-08T18:40:53.662Z,100678.70
2019-06-08T18:43:24.262Z,100679.70
2019-06-08T18:45:54.718Z,100683.35
2019-06-08T18:48:24.912Z,100685.75
2019-06-08T18:50:57.104Z,100684.02
2019-06-08T18:53:27.228Z,100688.73
2019-06-08T18:55:58.188Z,100686.88
2019-06-08T18:58:28.544Z,100687.30
2019-06-08T19:00:58.760Z,100686.73
2019-06-08T19:03:28.963Z,100685.59
2019-06-08T19:05:59.261Z,100691.46
2019-06-08T19:08:29.471Z,100690.55
2019-06-08T19:10:59.775Z,100692.88
2019-06-08T19:13:30.041Z,100698.34
2019-06-08T19:16:00.357Z,100697.33
2019-06-08T19:18:30.561Z,100702.46
2019-06-08T19:21:00.776Z,100700.69
2019-06-08T19:23:30.959Z,100702.99
2019-06-08T19:26:01.198Z,100706.67
2019-06-08T19:28:36.335Z,100709.98
2019-06-08T19:31:03.339Z,100717.75
2019-06-08T19:33:33.523Z,100722.94
2019-06-08T19:36:03.751Z,100727.91
2019-06-08T19:38:33.968Z,100729.48
2019-06-08T19:41:04.195Z,100733.23
2019-06-08T19:43:34.421Z,100735.64
2019-06-08T19:46:07.100Z,100741.53
2019-06-08T19:48:39.301Z,100750.42
2019-06-08T19:51:08.808Z,100752.34
2019-06-08T19:53:43.409Z,100752.18
2019-06-08T19:56:10.946Z,100753.33
2019-06-08T19:58:53.278Z,100758.28
2019-06-08T20:01:13.212Z,100759.36
2019-06-08T20:03:44.693Z,100767.69
2019-06-08T20:06:17.558Z,100765.95
2019-06-08T20:08:50.218Z,100768.30
2019-06-08T20:11:19.867Z,100771.30
2019-06-08T20:13:51.403Z,100778.19
2019-06-08T20:16:22.959Z,100777.16
2019-06-08T20:18:53.155Z,100777.90
2019-06-08T20:21:23.401Z,100782.59
2019-06-08T20:23:53.595Z,100789.13
2019-06-08T20:26:23.834Z,100785.00
2019-06-08T20:29:11.269Z,100787.59
2019-06-08T20:31:27.336Z,100792.11
2019-06-08T20:33:58.570Z,100794.44
2019-06-08T20:36:29.078Z,100801.01
2019-06-08T20:38:59.389Z,100803.41
2019-06-08T20:41:32.330Z,100802.03
2019-06-08T20:44:03.909Z,100805.06
2019-06-08T20:46:34.131Z,100812.06
2019-06-08T20:49:04.388Z,100810.88
2019-06-08T20:51:34.629Z,100810.89
2019-06-08T20:54:04.834Z,100812.03
2019-06-08T20:56:37.027Z,100814.48
2019-06-08T20:59:08.250Z,100819.33
2019-06-08T21:01:38.588Z,100823.06
2019-06-08T21:04:08.816Z,100825.58
2019-06-08T21:06:39.110Z,100834.23
2019-06-08T21:09:09.321Z,100832.25
2019-06-08T21:11:39.627Z,100833.45
2019-06-08T21:14:09.856Z,100831.41
2019-06-08T21:16:40.090Z,100828.52
2019-06-08T21:19:10.412Z,100825.86
2019-06-08T21:21:40.636Z,100829.28
2019-06-08T21:24:10.854Z,100828.55
2019-06-08T21:26:41.065Z,100835.09
2019-06-08T21:29:11.314Z,100834.99
2019-06-08T21:31:41.525Z,100839.11
2019-06-08T21:34:11.783Z,100840.97
2019-06-08T21:36:41.983Z,100834.83
2019-06-08T21:39:12.217Z,100834.52
2019-06-08T21:41:42.414Z,100831.88
2019-06-08T21:44:12.641Z,100833.11
2019-06-08T21:46:42.834Z,100833.19
2019-06-08T21:49:13.072Z,100835.95
2019-06-08T21:51:43.303Z,100835.69
2019-06-08T21:54:13.527Z,100832.72
2019-06-08T21:56:43.740Z,100834.20
2019-06-08T21:59:13.963Z,100834.31
2019-06-08T22:01:44.232Z,100834.89
2019-06-08T22:04:14.549Z,100843.47
2019-06-08T22:06:44.759Z,100846.72
2019-06-08T22:09:17.526Z,100850.55
2019-06-08T22:11:47.187Z,100847.73
2019-06-08T22:14:17.563Z,100843.63
2019-06-08T22:16:47.827Z,100840.55
2019-06-08T22:19:18.533Z,100840.45
2019-06-08T22:21:48.766Z,100842.19
2019-06-08T22:24:19.002Z,100837.23
2019-06-08T22:26:49.220Z,100840.20
2019-06-08T22:29:19.431Z,100836.98
2019-06-08T22:31:49.634Z,100842.91
2019-06-08T22:34:19.876Z,100846.09
2019-06-08T22:36:50.086Z,100849.63
2019-06-08T22:39:20.329Z,100851.09
2019-06-08T22:41:51.428Z,100851.96
2019-06-08T22:44:21.734Z,100851.69
2019-06-08T22:46:53.864Z,100852.61
2019-06-08T22:49:23.914Z,100857.86
2019-06-08T22:51:55.709Z,100847.77
2019-06-08T22:54:27.589Z,100846.86
2019-06-08T22:57:01.404Z,100840.26
2019-06-08T22:59:29.903Z,100841.92
2019-06-08T23:02:03.673Z,100847.00
2019-06-08T23:04:32.031Z,100842.67
2019-06-08T23:07:04.518Z,100840.45
2019-06-08T23:09:34.297Z,100838.87
2019-06-08T23:12:08.722Z,100837.35
2019-06-08T23:14:37.673Z,100837.13
2019-06-08T23:17:08.632Z,100840.20
2019-06-08T23:19:38.978Z,100834.00
2019-06-08T23:22:09.204Z,100841.38
2019-06-08T23:24:39.407Z,100844.43
2019-06-08T23:27:09.704Z,100843.71
2019-06-08T23:29:39.906Z,100847.09
2019-06-08T23:32:11.709Z,100842.73
2019-06-08T23:34:41.998Z,100838.44
2019-06-08T23:37:12.997Z,100837.64
2019-06-08T23:39:43.301Z,100838.96
2019-06-08T23:42:13.683Z,100831.09
2019-06-08T23:44:43.972Z,100832.91
2019-06-08T23:47:14.208Z,100834.91
2019-06-08T23:49:44.408Z,100829.27
2019-06-08T23:52:14.635Z,100831.08
2019-06-08T23:54:44.830Z,100831.73
2019-06-08T23:57:15.058Z,100832.69
2019-06-08T23:59:47.691Z,100832.45
